Time;durP1;ratioP1;P1;durP2;ratioP2;P2;SDS_P1;SDS_P2;PMS_P1;PMS_P2;Temp;Humidity;BMP_temperature;BMP_pressure;BME280_temperature;BME280_humidity;BME280_pressure;Samples;Min_cycle;Max_cycle;Signal;HPM_P1;HPM_P2
2022/02/17 00:00:13;;;;;;;1.50;1.45;;;11.70;99.90;;;;;;5028369;28;20125;-74
2022/02/17 00:02:43;;;;;;;2.00;1.83;;;11.70;99.90;;;;;;5013795;28;20022;-74
2022/02/17 00:05:12;;;;;;;1.00;0.75;;;11.70;99.90;;;;;;5013670;28;20524;-75
2022/02/17 00:07:38;;;;;;;5.90;2.35;;;11.70;99.90;;;;;;5013234;28;20052;-79
2022/02/17 00:10:08;;;;;;;1.52;0.55;;;11.70;99.90;;;;;;5014147;28;20022;-73
2022/02/17 00:12:34;;;;;;;5.50;3.88;;;11.70;99.90;;;;;;5013430;28;20022;-74
2022/02/17 00:15:00;;;;;;;0.90;0.90;;;11.70;99.90;;;;;;5013870;28;20022;-75
2022/02/17 00:17:26;;;;;;;0.00;0.00;;;11.70;99.90;;;;;;5013178;28;20519;-75
2022/02/17 00:19:51;;;;;;;0.00;0.00;;;11.70;99.90;;;;;;5013976;28;20029;-75
2022/02/17 00:22:17;;;;;;;0.10;0.10;;;11.70;99.90;;;;;;5013574;28;20026;-74
2022/02/17 00:24:44;;;;;;;10.95;4.00;;;11.70;99.90;;;;;;5013348;28;20030;-75
2022/02/17 00:27:09;;;;;;;0.30;0.30;;;11.70;99.90;;;;;;5013665;28;20028;-75
2022/02/17 00:29:35;;;;;;;16.30;1.25;;;11.70;99.90;;;;;;5012812;28;20034;-78
2022/02/17 00:32:01;;;;;;;1.08;0.43;;;11.80;99.90;;;;;;5013506;28;20521;-76
2022/02/17 00:34:26;;;;;;;6.75;1.15;;;11.80;99.90;;;;;;5013659;28;20033;-75
2022/02/17 00:36:52;;;;;;;0.43;0.43;;;11.80;99.90;;;;;;5019711;28;20025;-79
2022/02/17 00:39:18;;;;;;;0.80;0.80;;;11.80;99.90;;;;;;5032477;28;20447;-74
2022/02/17 00:41:43;;;;;;;3.72;2.72;;;11.90;99.90;;;;;;5033767;28;20029;-75
2022/02/17 00:44:10;;;;;;;0.10;0.10;;;11.90;99.90;;;;;;5033105;28;20057;-74
2022/02/17 00:46:36;;;;;;;0.75;0.75;;;11.90;99.90;;;;;;5033392;28;20041;-74
2022/02/17 00:49:02;;;;;;;0.85;0.22;;;11.90;99.90;;;;;;5031912;28;20033;-75
2022/02/17 00:51:27;;;;;;;0.63;0.55;;;11.90;99.90;;;;;;5032223;28;20021;-73
2022/02/17 00:53:53;;;;;;;24.50;1.85;;;11.90;99.90;;;;;;5032319;28;20037;-74
2022/02/17 00:56:18;;;;;;;0.75;0.75;;;11.90;99.90;;;;;;5031833;28;20025;-75
2022/02/17 00:58:44;;;;;;;2.28;1.00;;;12.00;99.90;;;;;;5033036;28;20025;-75
2022/02/17 01:01:10;;;;;;;3.53;0.32;;;12.00;99.90;;;;;;5017375;28;20029;-77
2022/02/17 01:03:35;;;;;;;2.92;1.55;;;12.00;99.90;;;;;;5012542;28;20409;-75
2022/02/17 01:06:02;;;;;;;1.75;0.75;;;12.00;99.90;;;;;;5012940;28;20055;-75
2022/02/17 01:08:28;;;;;;;1.88;1.08;;;12.00;99.90;;;;;;5011137;28;20056;-74
2022/02/17 01:10:53;;;;;;;43.05;1.60;;;12.00;99.90;;;;;;5016876;28;20022;-76
2022/02/17 01:13:23;;;;;;;0.10;0.10;;;12.00;99.90;;;;;;5015018;28;20084;-73
2022/02/17 01:15:49;;;;;;;0.85;0.73;;;12.00;99.90;;;;;;5015570;28;20028;-74
2022/02/17 01:18:15;;;;;;;6.40;2.28;;;12.00;99.90;;;;;;5016663;28;20049;-75
2022/02/17 01:20:41;;;;;;;1.10;1.05;;;12.00;99.90;;;;;;5015731;28;20026;-75
2022/02/17 01:23:08;;;;;;;0.15;0.15;;;12.00;99.90;;;;;;5016647;28;20033;-73
2022/02/17 01:25:33;;;;;;;0.60;0.60;;;12.00;99.90;;;;;;5016587;28;20382;-75
2022/02/17 01:27:59;;;;;;;1.35;1.13;;;12.00;99.90;;;;;;5015330;28;20080;-75
2022/02/17 01:30:24;;;;;;;10.55;2.97;;;12.00;99.90;;;;;;5016319;28;20030;-74
2022/02/17 01:32:50;;;;;;;1.45;0.93;;;12.00;99.90;;;;;;5018042;28;20033;-79
2022/02/17 01:35:16;;;;;;;1.45;1.08;;;12.00;99.90;;;;;;5016755;28;20018;-77
2022/02/17 01:37:42;;;;;;;0.15;0.15;;;12.00;99.90;;;;;;5029796;28;20033;-75
2022/02/17 01:40:10;;;;;;;1.20;0.73;;;11.90;99.90;;;;;;5036049;28;20018;-75
2022/02/17 01:42:36;;;;;;;0.80;0.80;;;12.00;99.90;;;;;;5036151;28;20049;-78
2022/02/17 01:45:07;;;;;;;0.90;0.90;;;11.90;99.90;;;;;;5036475;28;20514;-75
2022/02/17 01:47:33;;;;;;;2.92;1.85;;;11.90;99.90;;;;;;5035924;28;20033;-74
2022/02/17 01:49:59;;;;;;;1.88;1.45;;;11.90;99.90;;;;;;5034449;28;20024;-75
2022/02/17 01:52:24;;;;;;;33.45;1.52;;;12.00;99.90;;;;;;5035355;28;20023;-75
2022/02/17 01:54:50;;;;;;;1.50;1.40;;;12.00;99.90;;;;;;5037524;28;20045;-76
2022/02/17 01:57:19;;;;;;;3.45;1.92;;;11.90;99.90;;;;;;5036640;28;20076;-73
2022/02/17 01:59:46;;;;;;;0.30;0.30;;;12.00;99.90;;;;;;5035873;28;20048;-77
2022/02/17 02:02:12;;;;;;;0.00;0.00;;;11.90;99.90;;;;;;5035715;28;20033;-75
2022/02/17 02:04:38;;;;;;;0.80;0.80;;;11.90;99.90;;;;;;5035616;28;20026;-75
2022/02/17 02:07:05;;;;;;;0.20;0.20;;;11.90;99.90;;;;;;5035787;28;20029;-77
2022/02/17 02:09:31;;;;;;;0.13;0.13;;;12.00;99.90;;;;;;5035483;28;20445;-75
2022/02/17 02:11:57;;;;;;;0.43;0.43;;;12.00;99.90;;;;;;5035556;28;20049;-79
2022/02/17 02:14:23;;;;;;;4.47;1.85;;;12.00;99.90;;;;;;5035191;28;20032;-79
2022/02/17 02:16:50;;;;;;;3.00;0.88;;;12.00;99.90;;;;;;5035689;28;20471;-79
2022/02/17 02:19:16;;;;;;;1.48;0.55;;;12.00;99.90;;;;;;5035427;28;20021;-78
2022/02/17 02:21:42;;;;;;;0.88;0.70;;;12.00;99.90;;;;;;5034889;28;20401;-78
2022/02/17 02:24:08;;;;;;;0.00;0.00;;;12.00;99.90;;;;;;5036120;28;20032;-79
2022/02/17 02:26:34;;;;;;;1.58;1.48;;;12.10;99.90;;;;;;5035819;28;20053;-73
2022/02/17 02:29:00;;;;;;;0.73;0.68;;;12.10;99.90;;;;;;5034296;28;20029;-76
2022/02/17 02:31:26;;;;;;;0.68;0.68;;;12.10;99.90;;;;;;5037211;28;20104;-74
2022/02/17 02:33:51;;;;;;;5.82;2.65;;;12.10;99.90;;;;;;5034098;28;20140;-75
2022/02/17 02:36:17;;;;;;;1.02;1.02;;;12.10;99.90;;;;;;5036001;28;20059;-78
2022/02/17 02:38:43;;;;;;;0.80;0.80;;;12.10;99.90;;;;;;5036899;28;20033;-75
2022/02/17 02:41:09;;;;;;;0.17;0.17;;;12.20;99.90;;;;;;5035370;28;20032;-75
2022/02/17 02:43:36;;;;;;;28.33;2.08;;;12.20;99.90;;;;;;5034882;28;20041;-74
2022/02/17 02:46:02;;;;;;;1.40;1.10;;;12.20;99.90;;;;;;5035500;28;20112;-79
2022/02/17 02:48:28;;;;;;;1.65;1.55;;;12.20;99.90;;;;;;5032681;28;20459;-75
2022/02/17 02:50:54;;;;;;;0.10;0.10;;;12.20;99.90;;;;;;5034869;28;20049;-76
2022/02/17 02:53:20;;;;;;;1.13;0.52;;;12.30;99.90;;;;;;5034211;28;20100;-79
2022/02/17 02:55:48;;;;;;;0.25;0.25;;;12.30;99.90;;;;;;5034904;28;20487;-80
2022/02/17 02:58:14;;;;;;;2.17;1.23;;;12.30;99.90;;;;;;5034907;28;20052;-78
2022/02/17 03:00:41;;;;;;;0.75;0.73;;;12.30;99.90;;;;;;5035692;28;20029;-73
2022/02/17 03:03:07;;;;;;;0.63;0.63;;;12.30;99.90;;;;;;5066679;28;20033;-77
2022/02/17 03:05:33;;;;;;;0.80;0.80;;;12.30;99.90;;;;;;5034858;28;20549;-74
2022/02/17 03:07:59;;;;;;;41.42;2.13;;;12.30;99.90;;;;;;5034747;28;20086;-72
2022/02/17 03:10:27;;;;;;;0.35;0.15;;;12.30;99.90;;;;;;5034276;28;20024;-78
2022/02/17 03:12:53;;;;;;;1.10;0.82;;;12.30;99.90;;;;;;5033755;28;20105;-74
2022/02/17 03:15:20;;;;;;;1.55;1.45;;;12.30;99.90;;;;;;5034591;28;20126;-75
2022/02/17 03:17:46;;;;;;;0.00;0.00;;;12.30;99.90;;;;;;5034273;28;20419;-80
2022/02/17 03:20:12;;;;;;;1.25;0.85;;;12.30;99.90;;;;;;5034326;28;20026;-75
2022/02/17 03:22:39;;;;;;;1.23;1.17;;;12.30;99.90;;;;;;5034661;28;20033;-79
2022/02/17 03:25:10;;;;;;;0.10;0.10;;;12.30;99.90;;;;;;5033757;28;20489;-74
2022/02/17 03:27:36;;;;;;;0.80;0.80;;;12.30;99.90;;;;;;5034405;28;20072;-74
2022/02/17 03:30:05;;;;;;;0.35;0.35;;;12.30;99.90;;;;;;5034311;28;20035;-75
2022/02/17 03:32:30;;;;;;;1.88;0.40;;;12.30;99.90;;;;;;5032223;28;20057;-74
2022/02/17 03:34:56;;;;;;;0.00;0.00;;;12.30;99.90;;;;;;5033111;28;20429;-74
2022/02/17 03:37:21;;;;;;;0.25;0.25;;;12.20;99.90;;;;;;5034349;28;20492;-74
2022/02/17 03:39:47;;;;;;;0.05;0.05;;;12.20;99.90;;;;;;5033832;28;20049;-72
2022/02/17 03:42:14;;;;;;;6.22;1.02;;;12.20;99.90;;;;;;5033524;28;20369;-73
2022/02/17 03:44:39;;;;;;;5.78;0.85;;;12.20;99.90;;;;;;5034009;28;20084;-75
2022/02/17 03:47:06;;;;;;;0.00;0.00;;;12.20;99.90;;;;;;5034028;28;20033;-74
2022/02/17 03:49:31;;;;;;;0.13;0.13;;;12.20;99.90;;;;;;5033419;28;20077;-73
2022/02/17 03:51:57;;;;;;;0.28;0.13;;;12.20;99.90;;;;;;5033712;28;20067;-74
2022/02/17 03:54:22;;;;;;;0.00;0.00;;;12.20;99.90;;;;;;5032828;28;20443;-75
2022/02/17 03:56:48;;;;;;;0.68;0.68;;;12.20;99.90;;;;;;5033800;28;20022;-74
2022/02/17 03:59:14;;;;;;;0.28;0.28;;;12.20;99.90;;;;;;5032876;28;20108;-75
2022/02/17 04:01:40;;;;;;;1.15;0.68;;;12.20;99.90;;;;;;5021141;28;20029;-76
2022/02/17 04:04:08;;;;;;;2.05;1.20;;;12.20;99.90;;;;;;5013968;28;20108;-73
2022/02/17 04:06:34;;;;;;;0.00;0.00;;;12.20;99.90;;;;;;5014013;28;20554;-74
2022/02/17 04:09:01;;;;;;;0.10;0.10;;;12.20;99.90;;;;;;5013333;28;20034;-74
2022/02/17 04:11:27;;;;;;;0.55;0.55;;;12.20;99.90;;;;;;5045301;28;20046;-73
2022/02/17 04:13:53;;;;;;;0.80;0.70;;;12.20;99.90;;;;;;5013673;28;20139;-74
2022/02/17 04:16:19;;;;;;;0.38;0.38;;;12.20;99.90;;;;;;5013466;28;20516;-79
2022/02/17 04:18:46;;;;;;;0.00;0.00;;;12.20;99.90;;;;;;5014126;28;20022;-75
2022/02/17 04:21:13;;;;;;;0.08;0.08;;;12.20;99.90;;;;;;5012941;28;20026;-79
2022/02/17 04:23:44;;;;;;;0.08;0.08;;;12.20;99.90;;;;;;5013368;28;20397;-75
2022/02/17 04:26:14;;;;;;;0.08;0.08;;;12.20;99.90;;;;;;5014063;28;20030;-75
2022/02/17 04:28:41;;;;;;;0.20;0.20;;;12.20;99.90;;;;;;5013649;28;20084;-78
2022/02/17 04:31:07;;;;;;;0.00;0.00;;;12.20;99.90;;;;;;5013701;28;20084;-77
2022/02/17 04:33:34;;;;;;;1.20;1.13;;;12.20;99.90;;;;;;5013042;28;20026;-79
2022/02/17 04:36:01;;;;;;;1.00;0.65;;;12.20;99.90;;;;;;5013823;28;20097;-75
2022/02/17 04:38:27;;;;;;;3.65;1.45;;;12.20;99.90;;;;;;5032704;28;20026;-74
2022/02/17 04:43:37;;;;;;;3.78;3.13;;;12.20;99.90;;;;;;5032711;28;20091;-75
2022/02/17 04:46:03;;;;;;;35.63;1.13;;;12.20;99.90;;;;;;5033149;28;20017;-75
2022/02/17 04:48:29;;;;;;;0.17;0.13;;;12.20;99.90;;;;;;5031393;28;20025;-81
2022/02/17 04:50:54;;;;;;;2.20;0.55;;;12.20;99.90;;;;;;5032766;28;20026;-75
2022/02/17 04:53:20;;;;;;;0.00;0.00;;;12.20;99.90;;;;;;5031704;28;20037;-75
2022/02/17 04:55:46;;;;;;;0.32;0.20;;;12.20;99.90;;;;;;5033388;28;20045;-74
2022/02/17 04:58:13;;;;;;;0.08;0.08;;;12.20;99.90;;;;;;5031721;28;20034;-80
2022/02/17 05:00:38;;;;;;;0.73;0.65;;;12.20;99.90;;;;;;5028813;28;20477;-73
2022/02/17 05:03:04;;;;;;;0.00;0.00;;;12.20;99.90;;;;;;5013423;28;20026;-80
2022/02/17 05:05:32;;;;;;;0.30;0.30;;;12.20;99.90;;;;;;5013063;28;20034;-74
2022/02/17 05:07:58;;;;;;;0.00;0.00;;;12.30;99.90;;;;;;5012508;28;20029;-79
2022/02/17 05:10:23;;;;;;;0.35;0.35;;;12.30;99.90;;;;;;5012397;28;20109;-74
2022/02/17 05:12:52;;;;;;;0.10;0.10;;;12.30;99.90;;;;;;5012861;28;20101;-80
2022/02/17 05:15:18;;;;;;;0.00;0.00;;;12.30;99.90;;;;;;5013031;28;20113;-74
2022/02/17 05:17:43;;;;;;;0.10;0.10;;;12.30;99.90;;;;;;5012100;28;20097;-78
2022/02/17 05:20:09;;;;;;;0.00;0.00;;;12.30;99.90;;;;;;5013030;28;20034;-74
2022/02/17 05:22:39;;;;;;;0.35;0.35;;;12.20;99.90;;;;;;5012995;28;20393;-75
2022/02/17 05:25:06;;;;;;;5.35;0.25;;;12.20;99.90;;;;;;5012964;28;20030;-74
2022/02/17 05:27:32;;;;;;;3.10;1.13;;;12.30;99.90;;;;;;5013038;28;20029;-75
2022/02/17 05:29:57;;;;;;;1.48;0.75;;;12.20;99.90;;;;;;5013351;28;20045;-75
2022/02/17 05:32:23;;;;;;;0.00;0.00;;;12.20;99.90;;;;;;5012963;28;20026;-79
2022/02/17 05:34:49;;;;;;;0.05;0.05;;;12.30;99.90;;;;;;5012939;28;20482;-74
2022/02/17 05:37:14;;;;;;;0.00;0.00;;;12.30;99.90;;;;;;5027948;28;20021;-74
2022/02/17 05:39:40;;;;;;;0.20;0.20;;;12.20;99.90;;;;;;5029917;28;20028;-75
2022/02/17 05:42:05;;;;;;;0.10;0.10;;;12.20;99.90;;;;;;5032492;28;20021;-79
2022/02/17 05:44:31;;;;;;;2.30;1.10;;;12.20;99.90;;;;;;5030152;28;20056;-79
2022/02/17 05:46:57;;;;;;;0.00;0.00;;;12.20;99.90;;;;;;5032293;28;20021;-79
2022/02/17 05:49:22;;;;;;;0.75;0.75;;;12.20;99.90;;;;;;5031588;28;20037;-78
2022/02/17 05:51:48;;;;;;;0.10;0.10;;;12.20;99.90;;;;;;5032210;28;20049;-79
2022/02/17 05:54:13;;;;;;;2.92;1.80;;;12.20;99.90;;;;;;5029625;28;20118;-80
2022/02/17 05:56:40;;;;;;;0.03;0.03;;;12.20;99.90;;;;;;5034060;28;20025;-80
2022/02/17 05:59:06;;;;;;;0.00;0.00;;;12.20;99.90;;;;;;5035285;28;20112;-80
2022/02/17 06:01:31;;;;;;;6.38;1.95;;;12.10;99.90;;;;;;5035341;28;20496;-79
2022/02/17 06:03:58;;;;;;;0.85;0.75;;;12.10;99.90;;;;;;5035790;28;20109;-75
2022/02/17 06:06:23;;;;;;;0.55;0.55;;;12.10;99.90;;;;;;5034401;28;20033;-74
2022/02/17 06:08:49;;;;;;;3.10;1.55;;;12.10;99.90;;;;;;5035394;28;20033;-74
2022/02/17 06:11:14;;;;;;;0.30;0.30;;;12.10;99.90;;;;;;5036868;28;20536;-75
2022/02/17 06:13:40;;;;;;;0.85;0.60;;;12.10;99.90;;;;;;5035496;28;20105;-80
2022/02/17 06:16:06;;;;;;;0.00;0.00;;;12.10;99.90;;;;;;5035347;28;20067;-75
2022/02/17 06:18:31;;;;;;;2.90;2.17;;;12.20;99.90;;;;;;5034714;28;20029;-80
2022/02/17 06:20:57;;;;;;;0.70;0.70;;;12.20;99.90;;;;;;5036165;28;20044;-80
2022/02/17 06:23:23;;;;;;;0.20;0.20;;;12.20;99.90;;;;;;5035203;28;20071;-75
2022/02/17 06:25:48;;;;;;;0.45;0.45;;;12.20;99.90;;;;;;5035440;28;20041;-75
2022/02/17 06:28:14;;;;;;;1.65;0.82;;;12.10;99.90;;;;;;5035077;28;20033;-75
2022/02/17 06:30:44;;;;;;;0.30;0.30;;;12.20;99.90;;;;;;5033662;28;20037;-79
2022/02/17 06:33:10;;;;;;;0.73;0.60;;;12.10;99.90;;;;;;5034916;28;20029;-80
2022/02/17 06:35:38;;;;;;;0.47;0.47;;;12.10;99.90;;;;;;5034413;28;20022;-75
2022/02/17 06:38:05;;;;;;;2.17;1.55;;;12.00;99.90;;;;;;5034530;28;20492;-79
2022/02/17 06:40:32;;;;;;;0.60;0.60;;;12.00;99.90;;;;;;5031775;28;20100;-75
2022/02/17 06:43:04;;;;;;;0.20;0.20;;;12.00;99.90;;;;;;5033954;28;20041;-79
2022/02/17 06:45:30;;;;;;;5.93;3.45;;;12.00;99.90;;;;;;5034894;28;20025;-77
2022/02/17 06:47:55;;;;;;;0.57;0.57;;;12.00;99.90;;;;;;5034424;28;20116;-75
2022/02/17 06:50:21;;;;;;;2.80;1.13;;;12.00;99.90;;;;;;5034107;28;20044;-75
2022/02/17 06:52:47;;;;;;;0.15;0.15;;;12.00;99.90;;;;;;5034106;28;20392;-79
2022/02/17 06:55:12;;;;;;;1.55;0.70;;;12.10;99.90;;;;;;5031381;28;20028;-75
2022/02/17 06:57:38;;;;;;;0.00;0.00;;;12.10;99.90;;;;;;5034440;28;20034;-74
2022/02/17 07:00:05;;;;;;;0.00;0.00;;;12.20;99.90;;;;;;5035236;28;20029;-74
2022/02/17 07:02:33;;;;;;;0.00;0.00;;;12.20;99.90;;;;;;5034431;28;20043;-75
2022/02/17 07:04:59;;;;;;;0.00;0.00;;;12.30;99.90;;;;;;5019533;28;20025;-79
2022/02/17 07:07:25;;;;;;;0.65;0.52;;;12.30;99.90;;;;;;5021774;28;20040;-79
2022/02/17 07:09:50;;;;;;;0.70;0.68;;;12.30;99.90;;;;;;5031980;28;20498;-79
2022/02/17 07:12:16;;;;;;;0.85;0.50;;;12.20;99.90;;;;;;5030000;28;20370;-76
2022/02/17 07:14:42;;;;;;;0.10;0.10;;;12.20;99.90;;;;;;5029787;28;20022;-75
2022/02/17 07:17:08;;;;;;;0.00;0.00;;;12.20;99.90;;;;;;5030423;28;20029;-79
2022/02/17 07:19:34;;;;;;;0.30;0.30;;;12.10;99.90;;;;;;5032623;28;20032;-79
2022/02/17 07:22:00;;;;;;;0.00;0.00;;;12.10;99.90;;;;;;5032277;28;20064;-75
2022/02/17 07:24:26;;;;;;;0.00;0.00;;;12.00;99.90;;;;;;5031978;28;20049;-75
2022/02/17 07:26:52;;;;;;;2.47;1.42;;;12.00;99.90;;;;;;5030835;28;20048;-75
2022/02/17 07:29:18;;;;;;;1.60;1.05;;;12.00;99.90;;;;;;5030861;28;20555;-75
2022/02/17 07:31:44;;;;;;;9.73;4.10;;;12.00;99.90;;;;;;5040538;28;20021;-78
2022/02/17 07:34:10;;;;;;;4.53;1.83;;;12.10;99.90;;;;;;5031983;28;20022;-78
2022/02/17 07:36:37;;;;;;;0.30;0.30;;;12.00;99.90;;;;;;5031901;28;20579;-75
2022/02/17 07:39:05;;;;;;;13.15;1.98;;;12.00;99.90;;;;;;5030542;28;20028;-75
2022/02/17 07:41:35;;;;;;;1.00;0.98;;;12.10;99.90;;;;;;5030800;28;20034;-79
2022/02/17 07:44:00;;;;;;;0.00;0.00;;;12.00;99.90;;;;;;5028612;28;20037;-79
2022/02/17 07:46:26;;;;;;;9.75;3.83;;;12.00;99.90;;;;;;5031206;28;20029;-77
2022/02/17 07:48:54;;;;;;;1.15;0.77;;;12.00;99.90;;;;;;5031093;28;20036;-73
2022/02/17 07:51:20;;;;;;;0.08;0.08;;;12.00;99.90;;;;;;5026120;28;20063;-75
2022/02/17 07:53:45;;;;;;;1.85;0.45;;;12.00;99.90;;;;;;5028176;28;20056;-75
2022/02/17 07:56:11;;;;;;;0.30;0.30;;;12.00;99.90;;;;;;5030705;28;20083;-78
2022/02/17 07:58:38;;;;;;;0.75;0.30;;;12.00;99.90;;;;;;5031232;28;20052;-78
2022/02/17 08:01:04;;;;;;;0.00;0.00;;;12.00;99.90;;;;;;5027794;28;20095;-75
2022/02/17 08:03:33;;;;;;;1.08;0.68;;;12.00;99.90;;;;;;5012730;28;20020;-75
2022/02/17 08:05:59;;;;;;;0.50;0.50;;;12.00;99.90;;;;;;5030776;28;20049;-76
2022/02/17 08:08:25;;;;;;;2.90;0.95;;;12.00;99.90;;;;;;5031044;28;20026;-76
2022/02/17 08:10:50;;;;;;;0.25;0.25;;;12.10;99.90;;;;;;5030544;28;20680;-78
2022/02/17 08:13:18;;;;;;;1.33;1.23;;;12.10;99.90;;;;;;5027725;28;20017;-78
2022/02/17 08:15:44;;;;;;;1.08;1.05;;;12.10;99.90;;;;;;5021730;28;20457;-77
2022/02/17 08:18:09;;;;;;;0.10;0.10;;;12.10;99.90;;;;;;5025365;28;20018;-75
2022/02/17 08:20:36;;;;;;;0.38;0.38;;;12.10;99.90;;;;;;5027279;28;20647;-75
2022/02/17 08:23:02;;;;;;;0.30;0.30;;;12.10;99.90;;;;;;5028386;28;20029;-76
2022/02/17 08:25:27;;;;;;;0.00;0.00;;;12.10;99.90;;;;;;5030316;28;20033;-74
2022/02/17 08:27:53;;;;;;;0.00;0.00;;;12.10;99.90;;;;;;5027348;28;20040;-73
2022/02/17 08:30:20;;;;;;;0.32;0.32;;;12.00;99.90;;;;;;5028402;28;20476;-73
2022/02/17 08:32:46;;;;;;;1.55;0.65;;;12.10;99.90;;;;;;5029566;28;20022;-74
2022/02/17 08:35:13;;;;;;;0.55;0.55;;;12.00;99.90;;;;;;5029083;28;20071;-74
2022/02/17 08:37:40;;;;;;;4.65;1.17;;;12.10;99.90;;;;;;5029655;28;20034;-74
2022/02/17 08:40:08;;;;;;;0.50;0.50;;;12.00;99.90;;;;;;5021624;28;20477;-74
2022/02/17 08:42:34;;;;;;;0.45;0.45;;;12.00;99.90;;;;;;5029696;28;20049;-73
2022/02/17 08:45:00;;;;;;;0.25;0.25;;;12.00;99.90;;;;;;5030174;28;20034;-74
2022/02/17 08:47:25;;;;;;;0.10;0.10;;;12.10;99.90;;;;;;5030046;28;20029;-75
2022/02/17 08:49:51;;;;;;;0.93;0.93;;;12.10;99.90;;;;;;5029564;28;20025;-74
2022/02/17 08:52:19;;;;;;;1.38;0.95;;;12.10;99.90;;;;;;5029454;28;20099;-74
2022/02/17 08:54:45;;;;;;;0.55;0.55;;;12.10;99.90;;;;;;5029690;28;20041;-74
2022/02/17 08:57:11;;;;;;;0.45;0.35;;;12.00;99.90;;;;;;5030011;28;20392;-74
2022/02/17 08:59:37;;;;;;;0.55;0.55;;;12.00;99.90;;;;;;5030078;28;20116;-74
2022/02/17 09:02:03;;;;;;;2.35;0.75;;;12.00;99.90;;;;;;5030428;28;20048;-74
2022/02/17 09:04:32;;;;;;;1.20;1.10;;;12.10;99.90;;;;;;5026528;28;20037;-74
2022/02/17 09:06:59;;;;;;;36.05;1.80;;;12.20;99.90;;;;;;5027890;28;20455;-74
2022/02/17 09:09:25;;;;;;;0.98;0.65;;;12.20;99.90;;;;;;5027858;28;20116;-74
2022/02/17 09:11:50;;;;;;;0.00;0.00;;;12.20;99.90;;;;;;5029586;28;20545;-74
2022/02/17 09:14:16;;;;;;;0.75;0.73;;;12.20;99.90;;;;;;5029090;28;20037;-74
2022/02/17 09:16:42;;;;;;;0.15;0.15;;;12.30;99.90;;;;;;5029384;28;20041;-74
2022/02/17 09:19:08;;;;;;;2.90;2.25;;;12.30;99.90;;;;;;5029492;28;20492;-74
2022/02/17 09:21:34;;;;;;;12.60;2.05;;;12.40;99.90;;;;;;5028804;28;20037;-74
2022/02/17 09:24:00;;;;;;;0.10;0.10;;;12.60;99.90;;;;;;5010467;28;20489;-74
2022/02/17 09:26:29;;;;;;;1.40;0.95;;;12.70;99.90;;;;;;5014623;28;20084;-74
2022/02/17 09:28:55;;;;;;;3.08;1.17;;;12.70;99.90;;;;;;5029618;28;20047;-74
2022/02/17 09:31:23;;;;;;;0.10;0.10;;;12.70;99.90;;;;;;5031015;28;20049;-74
2022/02/17 09:33:54;;;;;;;3.30;1.33;;;12.70;99.90;;;;;;5032980;28;20108;-74
2022/02/17 09:36:21;;;;;;;2.40;1.08;;;12.70;99.90;;;;;;5032850;28;20075;-74
2022/02/17 09:38:47;;;;;;;1.65;0.88;;;12.80;99.90;;;;;;5032202;28;20045;-75
2022/02/17 09:41:16;;;;;;;1.92;0.57;;;12.70;99.90;;;;;;5030886;28;20026;-74
2022/02/17 09:43:45;;;;;;;4.82;1.65;;;12.70;99.90;;;;;;5033824;28;20041;-74
2022/02/17 09:46:14;;;;;;;0.00;0.00;;;12.80;99.90;;;;;;5034309;28;20093;-74
2022/02/17 09:48:41;;;;;;;1.98;0.80;;;12.90;99.90;;;;;;5032685;28;20497;-74
2022/02/17 09:51:07;;;;;;;0.52;0.50;;;13.00;99.90;;;;;;5031982;28;20036;-75
2022/02/17 09:53:33;;;;;;;0.28;0.28;;;13.20;99.90;;;;;;5032962;28;20061;-74
2022/02/17 09:55:59;;;;;;;0.45;0.45;;;13.30;99.90;;;;;;5032716;28;20539;-73
2022/02/17 09:58:25;;;;;;;0.52;0.52;;;13.30;99.90;;;;;;5032355;28;20021;-75
2022/02/17 10:00:53;;;;;;;2.20;0.10;;;13.40;99.90;;;;;;5017029;28;20025;-74
2022/02/17 10:03:23;;;;;;;0.10;0.10;;;13.40;99.90;;;;;;5024036;28;20034;-75
2022/02/17 10:06:07;;;;;;;0.73;0.73;;;13.40;99.90;;;;;;5030323;28;20141;-74
2022/02/17 10:08:33;;;;;;;0.70;0.70;;;13.20;99.90;;;;;;5032606;28;20033;-75
2022/02/17 10:10:59;;;;;;;0.00;0.00;;;13.20;99.90;;;;;;5013062;28;20057;-74
2022/02/17 10:13:24;;;;;;;0.77;0.38;;;13.10;99.90;;;;;;5031057;28;20057;-74
2022/02/17 10:15:59;;;;;;;0.47;0.47;;;13.00;99.90;;;;;;5032259;28;20024;-74
2022/02/17 10:18:30;;;;;;;14.25;0.35;;;13.00;99.90;;;;;;5032577;28;20079;-74
2022/02/17 10:21:11;;;;;;;0.00;0.00;;;13.10;99.90;;;;;;5032487;28;20461;-75
2022/02/17 10:23:45;;;;;;;0.00;0.00;;;13.10;99.90;;;;;;5031493;28;20057;-73
2022/02/17 10:26:13;;;;;;;5.63;1.45;;;13.00;99.90;;;;;;5032499;28;20026;-75
2022/02/17 10:28:44;;;;;;;17.17;2.78;;;12.90;99.90;;;;;;5031606;28;20464;-74
2022/02/17 10:31:37;;;;;;;0.10;0.10;;;12.80;99.90;;;;;;5032904;28;20072;-74
2022/02/17 10:34:04;;;;;;;0.43;0.40;;;12.80;99.90;;;;;;5032304;28;20496;-75
2022/02/17 10:36:44;;;;;;;8.38;4.28;;;12.80;99.90;;;;;;5032259;28;20105;-74
2022/02/17 10:39:13;;;;;;;0.10;0.10;;;12.80;99.90;;;;;;5032283;28;20025;-75
2022/02/17 10:41:47;;;;;;;0.95;0.55;;;12.90;99.90;;;;;;5031949;28;20053;-75
2022/02/17 10:44:15;;;;;;;0.22;0.20;;;12.90;99.90;;;;;;5030057;28;20050;-75
2022/02/17 10:46:41;;;;;;;6.93;2.03;;;12.90;99.90;;;;;;5032079;28;20032;-74
2022/02/17 10:49:21;;;;;;;0.93;0.90;;;12.80;99.90;;;;;;5031863;28;20432;-74
2022/02/17 10:51:49;;;;;;;7.22;2.83;;;12.90;99.90;;;;;;5031036;28;20029;-75
2022/02/17 10:54:24;;;;;;;0.47;0.47;;;12.90;99.90;;;;;;5031800;28;20408;-74
2022/02/17 10:56:51;;;;;;;32.33;1.15;;;13.00;99.90;;;;;;5031936;28;20021;-75
2022/02/17 11:02:04;;;;;;;1.27;0.05;;;12.90;99.90;;;;;;5027268;28;20063;-75
2022/02/17 11:04:30;;;;;;;0.77;0.77;;;12.90;99.90;;;;;;5031540;28;20096;-74
2022/02/17 11:06:58;;;;;;;5.93;1.65;;;12.90;99.90;;;;;;5031494;28;20116;-74
2022/02/17 11:09:24;;;;;;;3.42;1.08;;;12.90;99.90;;;;;;5032037;28;20022;-74
2022/02/17 11:11:51;;;;;;;1.73;1.63;;;12.90;99.90;;;;;;5031972;28;20029;-74
2022/02/17 11:14:36;;;;;;;0.13;0.13;;;13.00;99.90;;;;;;5031621;28;20021;-74
2022/02/17 11:17:03;;;;;;;0.50;0.50;;;13.00;99.90;;;;;;5029459;28;20187;-75
2022/02/17 11:19:29;;;;;;;2.13;1.33;;;12.90;99.90;;;;;;5031148;28;20497;-75
2022/02/17 11:21:55;;;;;;;1.38;1.27;;;12.90;99.90;;;;;;5030526;28;20068;-74
2022/02/17 11:24:21;;;;;;;0.40;0.40;;;12.90;99.90;;;;;;5028918;28;20026;-75
2022/02/17 11:26:46;;;;;;;0.17;0.17;;;13.10;99.90;;;;;;5030984;28;20108;-74
2022/02/17 11:29:25;;;;;;;0.00;0.00;;;13.00;99.90;;;;;;5031428;28;20021;-73
2022/02/17 11:31:58;;;;;;;0.52;0.47;;;13.10;99.90;;;;;;5031437;28;20025;-73
2022/02/17 11:34:46;;;;;;;0.10;0.10;;;13.10;99.90;;;;;;5029236;28;20062;-73
2022/02/17 11:37:20;;;;;;;0.00;0.00;;;13.00;99.90;;;;;;5031781;28;20033;-74
2022/02/17 11:40:03;;;;;;;1.00;0.55;;;13.10;99.90;;;;;;5030325;28;20029;-74
2022/02/17 11:42:36;;;;;;;0.00;0.00;;;13.20;99.90;;;;;;5021619;28;20550;-74
2022/02/17 11:45:11;;;;;;;0.00;0.00;;;13.00;99.90;;;;;;5030351;28;20049;-73
2022/02/17 11:48:09;;;;;;;3.53;1.55;;;12.90;99.90;;;;;;5030110;28;20124;-73
2022/02/17 11:50:43;;;;;;;0.00;0.00;;;12.90;99.90;;;;;;5017277;28;20050;-74
2022/02/17 11:53:30;;;;;;;0.28;0.28;;;12.90;99.90;;;;;;5024047;28;20568;-73
2022/02/17 11:56:14;;;;;;;0.17;0.17;;;12.80;99.90;;;;;;5030621;28;20540;-74
2022/02/17 11:58:51;;;;;;;0.38;0.20;;;12.80;99.90;;;;;;5028227;28;20025;-73
2022/02/17 12:01:25;;;;;;;0.00;0.00;;;12.90;99.90;;;;;;5027634;28;20476;-72
2022/02/17 12:04:05;;;;;;;0.00;0.00;;;12.90;99.90;;;;;;5029933;28;20038;-73
2022/02/17 12:06:32;;;;;;;0.00;0.00;;;12.90;99.90;;;;;;5028265;28;20481;-75
2022/02/17 12:08:58;;;;;;;0.00;0.00;;;12.80;99.90;;;;;;5028660;28;20461;-73
2022/02/17 12:11:41;;;;;;;0.00;0.00;;;12.90;99.90;;;;;;5028224;28;20116;-73
2022/02/17 12:14:08;;;;;;;0.00;0.00;;;12.90;99.90;;;;;;5028856;28;20431;-73
2022/02/17 12:16:41;;;;;;;0.30;0.30;;;12.90;99.90;;;;;;5030136;28;20069;-74
2022/02/17 12:19:15;;;;;;;0.05;0.05;;;12.80;99.90;;;;;;5030716;28;20104;-74
2022/02/17 12:21:42;;;;;;;0.65;0.65;;;12.80;99.90;;;;;;5029767;28;20033;-73
2022/02/17 12:24:10;;;;;;;0.00;0.00;;;12.90;99.90;;;;;;5014518;28;20026;-74
2022/02/17 12:26:42;;;;;;;0.15;0.15;;;12.90;99.90;;;;;;5011125;28;20041;-74
2022/02/17 12:29:32;;;;;;;1.55;0.93;;;12.90;99.90;;;;;;5018758;28;20424;-74
2022/02/17 12:31:59;;;;;;;0.00;0.00;;;12.70;99.90;;;;;;5030054;28;20026;-74
2022/02/17 12:34:26;;;;;;;0.63;0.63;;;12.80;99.90;;;;;;5030535;28;20025;-73
2022/02/17 12:36:52;;;;;;;0.00;0.00;;;12.70;99.90;;;;;;5030264;28;20496;-73
2022/02/17 12:39:18;;;;;;;0.52;0.52;;;12.70;99.90;;;;;;5029271;28;20028;-73
2022/02/17 12:42:00;;;;;;;10.60;1.35;;;12.70;99.90;;;;;;5018112;28;20037;-74
2022/02/17 12:44:31;;;;;;;0.47;0.47;;;12.90;99.90;;;;;;5023618;28;20080;-73
2022/02/17 12:46:58;;;;;;;1.08;0.22;;;13.00;99.90;;;;;;5014138;28;20038;-73
2022/02/17 12:49:25;;;;;;;0.00;0.00;;;12.80;99.90;;;;;;5029616;28;20030;-73
2022/02/17 12:51:50;;;;;;;0.00;0.00;;;12.70;99.90;;;;;;5029197;28;20476;-73